Time;durP1;ratioP1;P1;durP2;ratioP2;P2;SDS_P1;SDS_P2;PMS_P1;PMS_P2;Temp;Humidity;BMP_temperature;BMP_pressure;BME280_temperature;BME280_humidity;BME280_pressure;Samples;Min_cycle;Max_cycle;Signal;HPM_P1;HPM_P2
2024/03/06 00:01:02;;;;;;;;;0.00;0.00;;;;;12.02;100.00;101448.16;5139080;27;45485;-83
2024/03/06 00:03:27;;;;;;;;;0.00;0.00;;;;;12.01;100.00;101454.25;5138580;27;45597;-83
2024/03/06 00:05:53;;;;;;;;;0.00;0.00;;;;;11.99;100.00;101456.06;5138935;27;45405;-84
2024/03/06 00:08:19;;;;;;;;;0.00;0.00;;;;;12.18;100.00;101459.97;5138651;27;45479;-84
2024/03/06 00:10:45;;;;;;;;;0.00;0.00;;;;;12.31;100.00;101454.41;5119852;27;54612;-83
2024/03/06 00:13:10;;;;;;;;;0.00;0.00;;;;;12.05;100.00;101460.28;5138008;27;45365;-83
2024/03/06 00:15:35;;;;;;;;;0.00;0.00;;;;;12.04;100.00;101462.03;5118700;27;73658;-83
2024/03/06 00:18:02;;;;;;;;;0.00;0.00;;;;;12.03;100.00;101462.91;5118965;27;62328;-83
2024/03/06 00:20:28;;;;;;;;;0.00;0.00;;;;;12.07;100.00;101463.69;5120041;27;45847;-83
2024/03/06 00:22:53;;;;;;;;;0.00;0.00;;;;;12.09;100.00;101470.63;5138529;27;45372;-84
2024/03/06 00:25:22;;;;;;;;;0.00;0.00;;;;;12.11;100.00;101474.03;5120126;27;45445;-84
2024/03/06 00:27:47;;;;;;;;;0.00;0.00;;;;;12.11;100.00;101473.16;5138256;27;45329;-84
2024/03/06 00:30:13;;;;;;;;;0.00;0.00;;;;;12.12;100.00;101478.34;5138599;27;45214;-83
2024/03/06 00:32:38;;;;;;;;;0.00;0.00;;;;;12.10;100.00;101487.13;5118760;27;63197;-84
2024/03/06 00:35:04;;;;;;;;;0.00;0.00;;;;;12.09;100.00;101482.78;5136764;27;68661;-84
2024/03/06 00:37:29;;;;;;;;;0.00;0.00;;;;;12.09;100.00;101495.81;5138201;27;45328;-84
2024/03/06 00:39:55;;;;;;;;;0.00;0.00;;;;;12.10;100.00;101492.34;5153242;27;62491;-84
2024/03/06 00:42:21;;;;;;;;;0.00;0.00;;;;;12.13;100.00;101484.44;5159499;27;45257;-84
2024/03/06 00:44:46;;;;;;;;;0.00;0.00;;;;;12.14;100.00;101496.59;5139091;27;47275;-83
2024/03/06 00:47:11;;;;;;;;;0.00;0.00;;;;;12.24;100.00;101492.00;5139139;27;67521;-84
2024/03/06 00:49:38;;;;;;;;;0.00;0.00;;;;;12.19;100.00;101490.38;5123031;27;45300;-84
2024/03/06 00:52:04;;;;;;;;;0.00;0.00;;;;;12.20;100.00;101491.22;5159193;27;45405;-84
2024/03/06 00:54:29;;;;;;;;;0.00;0.00;;;;;12.19;100.00;101489.50;5137725;27;46243;-83
2024/03/06 00:56:55;;;;;;;;;0.00;0.00;;;;;12.23;100.00;101490.31;5138175;27;45504;-84
2024/03/06 00:59:20;;;;;;;;;0.00;0.00;;;;;12.26;100.00;101493.69;5120013;27;45399;-84
2024/03/06 01:01:45;;;;;;;;;0.00;0.00;;;;;12.23;100.00;101496.38;5137420;27;45541;-84
2024/03/06 01:04:11;;;;;;;;;0.00;0.00;;;;;12.23;100.00;101498.13;5137897;27;52733;-84
2024/03/06 01:06:36;;;;;;;;;0.00;0.00;;;;;12.24;100.00;101500.72;5137425;27;51469;-84
2024/03/06 01:09:01;;;;;;;;;0.00;0.00;;;;;12.26;100.00;101504.16;5137343;27;62862;-84
2024/03/06 01:11:27;;;;;;;;;0.00;0.00;;;;;12.47;100.00;101513.19;5118507;27;48326;-83
2024/03/06 01:13:53;;;;;;;;;19.00;19.00;;;;;12.52;100.00;101503.50;5137756;27;45560;-83
2024/03/06 01:16:19;;;;;;;;;0.00;0.00;;;;;12.54;100.00;101498.25;5137578;27;45257;-84
2024/03/06 01:18:44;;;;;;;;;0.00;0.00;;;;;12.26;100.00;101503.25;5138014;27;45340;-84
2024/03/06 01:21:09;;;;;;;;;0.00;0.00;;;;;12.19;100.00;101506.03;5137976;27;45382;-84
2024/03/06 01:23:35;;;;;;;;;0.00;0.00;;;;;12.18;100.00;101506.94;5119284;27;46233;-84
2024/03/06 01:26:00;;;;;;;;;0.00;0.00;;;;;12.17;100.00;101515.66;5136710;27;70594;-84
2024/03/06 01:28:26;;;;;;;;;0.00;0.00;;;;;12.18;100.00;101519.09;5119324;27;45573;-84
2024/03/06 01:30:53;;;;;;;;;0.00;0.00;;;;;12.19;100.00;101513.00;5122631;27;45250;-84
2024/03/06 01:33:19;;;;;;;;;0.00;0.00;;;;;12.26;100.00;101518.91;5123101;27;46354;-84
2024/03/06 01:35:44;;;;;;;;;0.00;0.00;;;;;12.25;100.00;101512.00;5122478;27;51472;-83
2024/03/06 01:38:10;;;;;;;;;0.00;0.00;;;;;12.24;100.00;101510.28;5121465;27;66871;-84
2024/03/06 01:40:35;;;;;;;;;0.00;0.00;;;;;12.25;100.00;101518.06;5141341;27;45398;-84
2024/03/06 01:43:01;;;;;;;;;0.00;0.00;;;;;12.39;100.00;101508.16;5140917;27;46268;-83
2024/03/06 01:45:26;;;;;;;;;1.50;1.50;;;;;12.20;100.00;101512.97;5141436;27;45435;-84
2024/03/06 01:47:52;;;;;;;;;0.00;0.00;;;;;12.34;100.00;101511.78;5159211;27;45434;-83
2024/03/06 01:50:18;;;;;;;;;0.00;0.00;;;;;12.25;100.00;101518.06;5154081;27;45462;-84
2024/03/06 01:52:44;;;;;;;;;0.00;0.00;;;;;12.19;100.00;101513.00;5104850;27;51906;-83
2024/03/06 01:55:10;;;;;;;;;0.00;0.00;;;;;12.15;100.00;101514.81;5122365;27;45367;-84
2024/03/06 01:57:38;;;;;;;;;0.00;0.00;;;;;12.16;100.00;101513.91;5140938;27;45435;-83
2024/03/06 02:00:04;;;;;;;;;0.00;0.00;;;;;12.12;100.00;101508.81;5122543;27;45409;-84
2024/03/06 02:02:30;;;;;;;;;0.00;0.00;;;;;12.09;100.00;101507.16;5140902;27;46234;-84
2024/03/06 02:04:57;;;;;;;;;0.00;0.00;;;;;12.11;100.00;101504.47;5126686;27;46295;-84
2024/03/06 02:07:24;;;;;;;;;0.00;0.00;;;;;12.11;100.00;101496.66;5125704;27;45500;-84
2024/03/06 02:09:49;;;;;;;;;0.00;0.00;;;;;12.11;100.00;101507.09;5143111;27;45373;-84
2024/03/06 02:12:16;;;;;;;;;0.00;0.00;;;;;12.09;100.00;101506.25;5161113;27;45382;-84
2024/03/06 02:14:41;;;;;;;;;0.00;0.00;;;;;12.07;100.00;101497.63;5161641;27;45383;-83
2024/03/06 02:17:06;;;;;;;;;0.00;0.00;;;;;12.33;100.00;101505.72;5142592;27;52063;-83
2024/03/06 02:19:41;;;;;;;;;0.00;0.00;;;;;12.11;100.00;101507.09;5125570;27;45594;-84
2024/03/06 02:22:07;;;;;;;;;0.00;0.00;;;;;12.07;100.00;101508.94;5161555;27;45295;-84
2024/03/06 02:24:33;;;;;;;;;0.00;0.00;;;;;12.07;100.00;101519.38;5142667;27;45644;-84
2024/03/06 02:26:59;;;;;;;;;0.00;0.00;;;;;12.04;100.00;101515.97;5121641;27;45425;-84
2024/03/06 02:29:24;;;;;;;;;0.00;0.00;;;;;12.01;100.00;101512.50;5140662;27;45293;-83
2024/03/06 02:31:50;;;;;;;;;0.00;0.00;;;;;11.99;100.00;101516.06;5140187;27;45389;-84
2024/03/06 02:34:15;;;;;;;;;0.00;0.00;;;;;12.07;100.00;101514.16;5139692;27;67747;-84
2024/03/06 02:36:40;;;;;;;;;0.00;0.00;;;;;12.26;100.00;101518.91;5121195;27;61877;-84
2024/03/06 02:39:08;;;;;;;;;0.00;0.00;;;;;12.27;100.00;101512.81;5130750;27;45368;-84
2024/03/06 02:41:35;;;;;;;;;5.25;5.25;;;;;12.27;100.00;101518.88;5159257;27;45428;-83
2024/03/06 02:44:01;;;;;;;;;0.00;0.00;;;;;12.28;100.00;101517.16;5142734;27;45441;-83
2024/03/06 02:46:26;;;;;;;;;0.00;0.00;;;;;12.28;100.00;101512.78;5161051;27;50972;-84
2024/03/06 02:48:51;;;;;;;;;0.00;0.00;;;;;12.06;100.00;101516.78;5125010;27;45509;-83
2024/03/06 02:51:20;;;;;;;;;0.00;0.00;;;;;12.03;100.00;101520.31;5159930;27;70357;-84
2024/03/06 02:53:46;;;;;;;;;0.00;0.00;;;;;11.98;100.00;101522.19;5161012;27;45576;-84
2024/03/06 02:56:18;;;;;;;;;0.00;0.00;;;;;11.96;100.00;101522.22;5142183;27;45362;-84
2024/03/06 02:58:44;;;;;;;;;0.00;0.00;;;;;11.92;100.00;101524.91;5139935;27;45394;-83
2024/03/06 03:01:09;;;;;;;;;0.00;0.00;;;;;11.89;100.00;101522.34;5121295;27;46116;-83
2024/03/06 03:03:34;;;;;;;;;0.00;0.00;;;;;11.86;100.00;101518.03;5139268;27;63063;-84
2024/03/06 03:06:00;;;;;;;;;0.00;0.00;;;;;11.89;100.00;101525.81;5139960;27;45784;-83
2024/03/06 03:08:26;;;;;;;;;0.00;0.00;;;;;11.92;100.00;101527.53;5139471;27;45604;-84
2024/03/06 03:10:51;;;;;;;;;0.00;0.00;;;;;11.94;100.00;101524.00;5119746;27;71471;-83
2024/03/06 03:13:16;;;;;;;;;0.00;0.00;;;;;11.95;100.00;101532.69;5121392;27;45486;-83
2024/03/06 03:15:42;;;;;;;;;0.00;0.00;;;;;11.96;100.00;101529.16;5138700;27;45778;-83
2024/03/06 03:18:08;;;;;;;;;4.00;4.00;;;;;11.96;100.00;101530.06;5139814;27;45376;-83
2024/03/06 03:20:33;;;;;;;;;4.00;4.00;;;;;11.96;100.00;101529.16;5120693;27;48250;-84
2024/03/06 03:22:59;;;;;;;;;0.67;0.67;;;;;11.96;100.00;101535.25;5120237;27;65313;-83
2024/03/06 03:25:25;;;;;;;;;3.25;3.25;;;;;11.99;100.00;101535.19;5120658;27;45388;-83
2024/03/06 03:27:50;;;;;;;;;0.00;0.00;;;;;11.98;100.00;101536.09;5138836;27;60605;-83
2024/03/06 03:30:20;;;;;;;;;0.00;0.00;;;;;12.00;100.00;101536.06;5120119;27;68515;-83
2024/03/06 03:32:45;;;;;;;;;0.00;0.00;;;;;11.96;100.00;101530.06;5121232;27;45444;-83
2024/03/06 03:35:11;;;;;;;;;0.00;0.00;;;;;11.95;100.00;101528.31;5120678;27;45612;-83
2024/03/06 03:37:36;;;;;;;;;0.00;0.00;;;;;11.96;100.00;101531.78;5159824;27;63521;-83
2024/03/06 03:40:02;;;;;;;;;0.00;0.00;;;;;11.95;100.00;101535.28;5141608;27;55115;-83
2024/03/06 03:42:28;;;;;;;;;2.25;2.25;;;;;11.95;100.00;101541.38;5139010;27;45339;-83
2024/03/06 03:44:53;;;;;;;;;1.00;1.00;;;;;11.95;100.00;101538.75;5120743;27;45594;-83
2024/03/06 03:47:19;;;;;;;;;2.25;2.25;;;;;11.98;100.00;101536.09;5138725;27;57649;-84
2024/03/06 03:49:44;;;;;;;;;0.00;0.00;;;;;12.00;100.00;101542.13;5106439;27;47366;-83
2024/03/06 03:52:09;;;;;;;;;0.00;0.00;;;;;12.03;100.00;101537.72;5154992;27;66354;-83
2024/03/06 03:54:35;;;;;;;;;0.00;0.00;;;;;12.01;100.00;101542.97;5103153;27;45331;-83
2024/03/06 03:57:00;;;;;;;;;0.00;0.00;;;;;12.03;100.00;101541.19;5139131;27;45198;-84
2024/03/06 03:59:26;;;;;;;;;0.00;0.00;;;;;12.02;100.00;101536.88;5138957;27;46140;-83
2024/03/06 04:01:51;;;;;;;;;0.00;0.00;;;;;12.00;100.00;101536.91;5138924;27;45466;-83
2024/03/06 04:04:16;;;;;;;;;0.00;0.00;;;;;12.05;100.00;101535.94;5139009;27;45346;-83
2024/03/06 04:06:42;;;;;;;;;0.00;0.00;;;;;12.03;100.00;101546.41;5138134;27;63442;-83
2024/03/06 04:09:10;;;;;;;;;0.00;0.00;;;;;12.04;100.00;101542.06;5137597;27;71671;-83
2024/03/06 04:11:37;;;;;;;;;0.00;0.00;;;;;11.99;100.00;101543.00;5119896;27;45479;-84
2024/03/06 04:14:09;;;;;;;;;0.00;0.00;;;;;11.96;100.00;101545.69;5139079;27;45417;-85
2024/03/06 04:16:35;;;;;;;;;0.00;0.00;;;;;11.94;100.00;101554.44;5138623;27;45527;-83
2024/03/06 04:19:00;;;;;;;;;3.00;3.00;;;;;11.94;100.00;101562.25;5138565;27;45409;-83
2024/03/06 04:21:26;;;;;;;;;53.50;45.50;;;;;11.92;100.00;101557.09;5138633;27;45348;-83
2024/03/06 04:23:51;;;;;;;;;0.00;0.00;;;;;11.94;100.00;101557.03;5137714;27;61829;-83
2024/03/06 04:26:17;;;;;;;;;0.00;0.00;;;;;11.91;100.00;101559.75;5138636;27;45265;-84
2024/03/06 04:28:43;;;;;;;;;0.00;0.00;;;;;11.92;100.00;101562.31;5137575;27;45351;-83
2024/03/06 04:31:09;;;;;;;;;0.00;0.00;;;;;11.89;100.00;101562.34;5138551;27;45345;-84
2024/03/06 04:33:34;;;;;;;;;0.00;0.00;;;;;11.92;100.00;101562.31;5138942;27;45287;-84
2024/03/06 04:36:03;;;;;;;;;0.00;0.00;;;;;11.96;100.00;101563.09;5138088;27;53603;-84
2024/03/06 04:38:31;;;;;;;;;0.00;0.00;;;;;11.94;100.00;101570.97;5137966;27;45373;-83
2024/03/06 04:40:57;;;;;;;;;0.00;0.00;;;;;12.09;100.00;101572.38;5120145;27;45430;-84
2024/03/06 04:43:22;;;;;;;;;0.00;0.00;;;;;11.97;100.00;101567.44;5119969;27;45722;-84
2024/03/06 04:45:48;;;;;;;;;0.00;0.00;;;;;11.97;100.00;101570.88;5135423;27;54909;-84
2024/03/06 04:48:13;;;;;;;;;0.00;0.00;;;;;11.98;100.00;101569.16;5139855;27;61389;-84
2024/03/06 04:50:41;;;;;;;;;0.00;0.00;;;;;11.99;100.00;101569.09;5158923;27;45375;-84
2024/03/06 04:53:06;;;;;;;;;0.00;0.00;;;;;11.98;100.00;101574.38;5140692;27;45293;-84
2024/03/06 04:55:31;;;;;;;;;1.00;1.00;;;;;11.98;100.00;101582.19;5140539;27;45359;-84
2024/03/06 04:57:57;;;;;;;;;60.67;24.00;;;;;11.99;100.00;101582.16;5139223;27;72338;-84
2024/03/06 05:00:23;;;;;;;;;0.00;0.00;;;;;11.99;100.00;101581.28;5122318;27;45379;-84
2024/03/06 05:02:50;;;;;;;;;0.00;0.00;;;;;12.01;100.00;101592.56;5138244;27;45595;-84
2024/03/06 05:05:16;;;;;;;;;6.00;4.00;;;;;12.02;100.00;101583.84;5159557;27;45383;-84
2024/03/06 05:07:41;;;;;;;;;0.00;0.00;;;;;12.03;100.00;101587.31;5158639;27;45453;-84
2024/03/06 05:10:09;;;;;;;;;0.00;0.00;;;;;12.04;100.00;101591.66;5140417;27;45493;-84
2024/03/06 05:12:35;;;;;;;;;0.00;0.00;;;;;12.01;100.00;101596.00;5159331;27;45263;-84
2024/03/06 05:15:00;;;;;;;;;0.00;0.00;;;;;12.00;100.00;101596.06;5140321;27;45498;-84
2024/03/06 05:17:26;;;;;;;;;0.00;0.00;;;;;12.01;100.00;101603.84;5155999;27;70709;-84
2024/03/06 05:19:54;;;;;;;;;3.00;3.00;;;;;11.99;100.00;101604.78;5139730;27;54058;-83
2024/03/06 05:22:21;;;;;;;;;0.00;0.00;;;;;11.96;100.00;101599.63;5158542;27;45430;-84
2024/03/06 05:24:46;;;;;;;;;6.00;6.00;;;;;11.92;100.00;101605.78;5158861;27;45405;-84
2024/03/06 05:27:16;;;;;;;;;0.00;0.00;;;;;11.91;100.00;101610.16;5139802;27;45456;-84
2024/03/06 05:29:41;;;;;;;;;0.00;0.00;;;;;11.91;100.00;101617.13;5140746;27;45358;-83
2024/03/06 05:32:07;;;;;;;;;0.00;0.00;;;;;11.91;100.00;101630.19;5140265;27;45305;-84
2024/03/06 05:34:35;;;;;;;;;0.00;0.00;;;;;11.94;100.00;101635.31;5158092;27;64168;-83
2024/03/06 05:37:01;;;;;;;;;0.00;0.00;;;;;11.92;100.00;101630.16;5141781;27;57885;-84
2024/03/06 05:39:27;;;;;;;;;2.50;2.50;;;;;11.94;100.00;101636.19;5127790;27;45332;-84
2024/03/06 05:41:54;;;;;;;;;0.00;0.00;;;;;11.95;100.00;101642.25;5136506;27;45390;-84
2024/03/06 05:44:20;;;;;;;;;0.00;0.00;;;;;11.99;100.00;101642.16;5136582;27;45240;-84
2024/03/06 05:46:46;;;;;;;;;0.00;0.00;;;;;12.03;100.00;101637.75;5118986;27;47252;-84
2024/03/06 05:49:17;;;;;;;;;0.00;0.00;;;;;12.04;100.00;101644.69;5136440;27;45241;-84
2024/03/06 05:51:42;;;;;;;;;0.00;0.00;;;;;12.01;100.00;101644.75;5156908;27;45734;-83
2024/03/06 05:54:09;;;;;;;;;0.00;0.00;;;;;12.23;100.00;101649.53;5154756;27;45361;-84
2024/03/06 05:56:35;;;;;;;;;0.00;0.00;;;;;12.23;100.00;101659.97;5137495;27;46690;-84
2024/03/06 05:59:04;;;;;;;;;0.00;0.00;;;;;12.20;100.00;101655.66;5118892;27;45334;-84
2024/03/06 06:01:30;;;;;;;;;0.00;0.00;;;;;12.17;100.00;101658.34;5119633;27;45331;-83
2024/03/06 06:03:55;;;;;;;;;3.00;3.00;;;;;12.18;100.00;101660.06;5101603;27;45591;-84
2024/03/06 06:06:21;;;;;;;;;0.00;0.00;;;;;12.16;100.00;101657.47;5100464;27;64411;-84
2024/03/06 06:08:46;;;;;;;;;0.00;0.00;;;;;12.18;100.00;101660.06;5118357;27;54219;-84
2024/03/06 06:11:12;;;;;;;;;0.00;0.00;;;;;12.00;100.00;101671.75;5118736;27;45346;-84
2024/03/06 06:13:47;;;;;;;;;0.00;0.00;;;;;11.93;100.00;101672.75;5152978;27;45329;-86
2024/03/06 06:16:12;;;;;;;;;0.00;0.00;;;;;11.93;100.00;101667.53;5142609;27;46561;-84
2024/03/06 06:18:41;;;;;;;;;0.00;0.00;;;;;11.93;100.00;101671.00;5142104;27;63726;-83
2024/03/06 06:21:07;;;;;;;;;0.00;0.00;;;;;11.91;100.00;101672.78;5161667;27;45313;-84
2024/03/06 06:23:33;;;;;;;;;0.00;0.00;;;;;12.09;100.00;101671.56;5143016;27;45315;-84
2024/03/06 06:25:59;;;;;;;;;0.00;0.00;;;;;11.90;100.00;101681.47;5142971;27;46403;-84
2024/03/06 06:28:24;;;;;;;;;7.00;7.00;;;;;12.03;100.00;101679.50;5141964;27;65118;-84
2024/03/06 06:30:52;;;;;;;;;0.00;0.00;;;;;11.86;100.00;101682.41;5136851;27;62286;-83
2024/03/06 06:33:18;;;;;;;;;0.50;0.50;;;;;11.85;100.00;101691.13;5122055;27;45359;-84
2024/03/06 06:35:44;;;;;;;;;0.00;0.00;;;;;12.09;100.00;101689.81;5140372;27;45294;-84
2024/03/06 06:38:09;;;;;;;;;0.00;0.00;;;;;12.13;100.00;101691.47;5140027;27;51590;-84
2024/03/06 06:40:36;;;;;;;;;0.00;0.00;;;;;12.13;100.00;101688.03;5120914;27;61549;-84
2024/03/06 06:43:01;;;;;;;;;0.00;0.00;;;;;11.88;100.00;101698.03;5140353;27;45259;-84
2024/03/06 06:45:28;;;;;;;;;0.00;0.00;;;;;11.84;100.00;101704.19;5120392;27;66548;-84
2024/03/06 06:47:54;;;;;;;;;0.00;0.00;;;;;11.83;100.00;101713.78;5139780;27;45514;-83
2024/03/06 06:50:23;;;;;;;;;0.00;0.00;;;;;11.80;100.00;101719.91;5129918;27;45360;-84
2024/03/06 06:52:48;;;;;;;;;0.00;0.00;;;;;11.81;100.00;101724.25;5161232;27;45413;-84
2024/03/06 06:55:16;;;;;;;;;0.00;0.00;;;;;11.83;100.00;101726.81;5142128;27;46354;-84
2024/03/06 06:57:44;;;;;;;;;0.00;0.00;;;;;11.82;100.00;101727.69;5161350;27;45491;-83
2024/03/06 07:00:15;;;;;;;;;0.00;0.00;;;;;11.82;100.00;101720.72;5142559;27;45414;-84
2024/03/06 07:02:42;;;;;;;;;0.00;0.00;;;;;11.85;100.00;101725.03;5154720;27;45431;-84
2024/03/06 07:05:08;;;;;;;;;0.00;0.00;;;;;11.93;100.00;101727.53;5121312;27;46601;-84
2024/03/06 07:07:34;;;;;;;;;0.00;0.00;;;;;11.92;100.00;101726.69;5139830;27;45511;-84
2024/03/06 07:10:00;;;;;;;;;0.00;0.00;;;;;11.93;100.00;101735.38;5140146;27;45357;-84
2024/03/06 07:12:26;;;;;;;;;3.00;3.00;;;;;11.92;100.00;101736.25;5139886;27;45342;-83
2024/03/06 07:14:51;;;;;;;;;1.00;1.00;;;;;11.93;100.00;101735.38;5138944;27;73157;-84
2024/03/06 07:17:19;;;;;;;;;0.00;0.00;;;;;11.93;100.00;101738.81;5102924;27;63333;-84
2024/03/06 07:19:44;;;;;;;;;0.00;0.00;;;;;11.94;100.00;101735.34;5139869;27;45304;-83
2024/03/06 07:22:09;;;;;;;;;0.00;0.00;;;;;11.96;100.00;101744.00;5138925;27;64368;-85
2024/03/06 07:24:37;;;;;;;;;0.00;0.00;;;;;11.99;100.00;101743.06;5109572;27;45665;-86
2024/03/06 07:27:03;;;;;;;;;0.00;0.00;;;;;12.01;100.00;101747.34;5126294;27;45336;-85
2024/03/06 07:29:28;;;;;;;;;0.25;0.25;;;;;12.05;100.00;101749.91;5143176;27;45547;-85
2024/03/06 07:31:56;;;;;;;;;0.00;0.00;;;;;12.10;100.00;101750.69;5144780;27;45460;-87
2024/03/06 07:34:21;;;;;;;;;0.00;0.00;;;;;12.11;100.00;101752.41;5144244;27;45600;-85
2024/03/06 07:36:47;;;;;;;;;0.00;0.00;;;;;12.16;100.00;101761.00;5123464;27;45585;-87
2024/03/06 07:39:15;;;;;;;;;0.00;0.00;;;;;12.19;100.00;101758.34;5132031;27;45326;-87
2024/03/06 07:41:44;;;;;;;;;0.00;0.00;;;;;12.20;100.00;101757.44;5142999;27;45449;-88
2024/03/06 07:44:09;;;;;;;;;0.00;0.00;;;;;12.21;100.00;101764.41;5125517;27;47302;-85
2024/03/06 07:46:35;;;;;;;;;0.00;0.00;;;;;12.24;100.00;101772.19;5159787;27;64410;-88
2024/03/06 07:49:02;;;;;;;;;0.00;0.00;;;;;12.40;100.00;101770.13;5125370;27;45601;-90
2024/03/06 07:51:31;;;;;;;;;0.00;0.00;;;;;12.30;100.00;101782.50;5142970;27;45423;-85
2024/03/06 07:53:57;;;;;;;;;0.00;0.00;;;;;12.35;100.00;101783.28;5120772;27;45468;-83
2024/03/06 07:56:23;;;;;;;;;0.00;0.00;;;;;12.39;100.00;101782.31;5139128;27;45475;-81
2024/03/06 07:58:49;;;;;;;;;0.00;0.00;;;;;12.41;100.00;101779.69;5138532;27;45430;-80
2024/03/06 08:01:15;;;;;;;;;0.00;0.00;;;;;12.36;100.00;101784.97;5154061;27;45587;-80
2024/03/06 08:03:43;;;;;;;;;0.00;0.00;;;;;12.42;100.00;101785.75;5146467;27;46015;-80
2024/03/06 08:06:11;;;;;;;;;0.00;0.00;;;;;12.50;100.00;101783.84;5126643;27;45414;-81
2024/03/06 08:08:36;;;;;;;;;0.75;0.75;;;;;12.61;100.00;101789.72;5138010;27;45430;-80
2024/03/06 08:11:05;;;;;;;;;0.00;0.00;;;;;12.61;100.00;101792.34;5137422;27;66429;-80
2024/03/06 08:13:30;;;;;;;;;0.00;0.00;;;;;12.93;100.00;101796.03;5140024;27;45525;-81
2024/03/06 08:15:56;;;;;;;;;0.00;0.00;;;;;12.69;100.00;101795.66;5148366;27;45985;-78
2024/03/06 08:18:21;;;;;;;;;0.00;0.00;;;;;12.67;100.00;101800.03;5147940;27;57970;-79
2024/03/06 08:20:46;;;;;;;;;0.00;0.00;;;;;12.68;100.00;101803.50;5136699;27;60947;-79
2024/03/06 08:23:12;;;;;;;;;0.00;0.00;;;;;12.66;100.00;101808.75;5142753;27;59008;-78
2024/03/06 08:25:37;;;;;;;;;0.00;0.00;;;;;12.60;100.00;101811.50;5121934;27;67975;-80
2024/03/06 08:28:03;;;;;;;;;0.00;0.00;;;;;12.61;100.00;101812.34;5135631;27;45401;-80
2024/03/06 08:30:30;;;;;;;;;0.00;0.00;;;;;12.57;100.00;101812.44;5139863;27;45423;-79
2024/03/06 08:32:56;;;;;;;;;0.00;0.00;;;;;12.65;100.00;101820.13;5144799;27;46800;-81
2024/03/06 08:35:23;;;;;;;;;0.75;0.75;;;;;12.77;100.00;101813.78;5143479;27;45520;-81
2024/03/06 08:37:49;;;;;;;;;0.00;0.00;;;;;12.72;100.00;101824.34;5151487;27;45406;-81
2024/03/06 08:40:14;;;;;;;;;0.00;0.00;;;;;12.69;100.00;101819.16;5137108;27;45760;-80
2024/03/06 08:42:49;;;;;;;;;0.00;0.00;;;;;12.67;100.00;101830.53;5143921;27;46780;-81
2024/03/06 08:45:15;;;;;;;;;0.00;0.00;;;;;12.68;100.00;101837.47;5151214;27;45501;-80
2024/03/06 08:47:41;;;;;;;;;0.00;0.00;;;;;12.74;100.00;101830.38;5148084;27;45643;-81
2024/03/06 08:50:07;;;;;;;;;0.00;0.00;;;;;12.85;100.00;101832.78;5145266;27;45584;-80
2024/03/06 08:52:34;;;;;;;;;0.00;0.00;;;;;12.92;100.00;101833.50;5133335;27;46461;-82
2024/03/06 08:54:59;;;;;;;;;0.00;0.00;;;;;12.93;100.00;101830.84;5150193;27;45400;-82
2024/03/06 08:57:28;;;;;;;;;0.00;0.00;;;;;12.95;100.00;101839.50;5123032;27;65303;-81
2024/03/06 08:59:53;;;;;;;;;1.00;1.00;;;;;12.95;100.00;101839.50;5140477;27;45673;-82
2024/03/06 09:02:19;;;;;;;;;0.00;0.00;;;;;12.98;100.00;101844.69;5132920;27;45447;-82
2024/03/06 09:04:45;;;;;;;;;10.00;10.00;;;;;13.02;100.00;101845.47;5151471;27;45562;-82
2024/03/06 09:07:11;;;;;;;;;0.00;0.00;;;;;13.06;100.00;101852.34;5157888;27;45298;-81
2024/03/06 09:09:36;;;;;;;;;0.50;0.50;;;;;13.10;100.00;101843.56;5125812;27;45499;-82
2024/03/06 09:12:11;;;;;;;;;0.00;0.00;;;;;13.23;100.00;101849.38;5149095;27;45469;-82
2024/03/06 09:14:38;;;;;;;;;0.00;0.00;;;;;13.29;100.00;101857.06;5133686;27;45561;-82
2024/03/06 09:17:03;;;;;;;;;0.00;0.00;;;;;13.31;100.00;101857.91;5140501;27;45718;-81
2024/03/06 09:19:30;;;;;;;;;0.00;0.00;;;;;13.40;100.00;101854.25;5122414;27;45798;-82
2024/03/06 09:21:56;;;;;;;;;0.00;0.00;;;;;13.53;100.00;101852.22;5157563;27;46577;-79
2024/03/06 09:24:23;;;;;;;;;1.00;1.00;;;;;13.64;100.00;101854.59;5157723;27;45320;-79
2024/03/06 09:26:49;;;;;;;;;0.00;0.00;;;;;13.65;100.00;101856.28;5131472;27;45304;-79
2024/03/06 09:29:14;;;;;;;;;0.00;0.00;;;;;13.68;100.00;101857.06;5147877;27;45465;-79
2024/03/06 09:31:39;;;;;;;;;0.00;0.00;;;;;13.84;100.00;101851.50;5117700;27;74317;-79
2024/03/06 09:34:05;;;;;;;;;7.00;7.00;;;;;13.83;100.00;101857.59;5141187;27;45525;-78
2024/03/06 09:36:32;;;;;;;;;0.00;0.00;;;;;13.96;100.00;101858.16;5147967;27;45488;-79
2024/03/06 09:38:58;;;;;;;;;0.00;0.00;;;;;14.06;100.00;101854.41;5145848;27;45495;-80
2024/03/06 09:41:23;;;;;;;;;1.00;1.00;;;;;14.11;100.00;101857.75;5149959;27;45685;-80
2024/03/06 09:43:49;;;;;;;;;9.50;9.50;;;;;14.12;100.00;101860.34;5133965;27;45284;-79
2024/03/06 09:46:15;;;;;;;;;0.00;0.00;;;;;14.05;100.00;101857.94;5143912;27;66652;-80
2024/03/06 09:48:47;;;;;;;;;0.00;0.00;;;;;13.86;100.00;101857.53;5126777;27;45437;-80
2024/03/06 09:51:13;;;;;;;;;0.00;0.00;;;;;13.86;100.00;101857.53;5143434;27;47104;-80
2024/03/06 09:53:39;;;;;;;;;0.00;0.00;;;;;13.81;100.00;101859.41;5151441;27;45617;-79
2024/03/06 09:56:05;;;;;;;;;0.00;0.00;;;;;13.65;100.00;101861.50;5126450;27;45549;-80
2024/03/06 09:58:31;;;;;;;;;0.00;0.00;;;;;13.51;100.00;101864.47;5142870;27;45497;-81
2024/03/06 10:00:58;;;;;;;;;0.00;0.00;;;;;13.34;100.00;101867.47;5121515;27;47166;-80
2024/03/06 10:03:24;;;;;;;;;0.00;0.00;;;;;13.28;100.00;101864.94;5139212;27;45518;-81
2024/03/06 10:05:49;;;;;;;;;0.00;0.00;;;;;13.26;100.00;101870.22;5149047;27;49576;-80
2024/03/06 10:08:16;;;;;;;;;0.00;0.00;;;;;13.28;100.00;101871.06;5147415;27;62632;-81
2024/03/06 10:10:42;;;;;;;;;0.00;0.00;;;;;13.39;100.00;101876.09;5152656;27;45425;-80
2024/03/06 10:13:07;;;;;;;;;1.00;1.00;;;;;13.42;100.00;101870.75;5156522;27;45412;-80
2024/03/06 10:15:36;;;;;;;;;0.00;0.00;;;;;13.49;100.00;101874.13;5148662;27;66611;-81
2024/03/06 10:18:15;;;;;;;;;0.00;0.00;;;;;13.62;100.00;101874.69;5145256;27;46460;-81
2024/03/06 10:20:43;;;;;;;;;0.00;0.00;;;;;13.72;100.00;101876.19;5156367;27;45311;-79
2024/03/06 10:23:09;;;;;;;;;0.00;0.00;;;;;13.73;100.00;101870.91;5134229;27;45610;-80
2024/03/06 10:25:34;;;;;;;;;0.00;0.00;;;;;13.72;100.00;101873.56;5148597;27;45277;-80
2024/03/06 10:28:07;;;;;;;;;0.00;0.00;;;;;13.81;100.00;101872.50;5132112;27;68036;-80
2024/03/06 10:30:37;;;;;;;;;0.00;0.00;;;;;13.87;100.00;101873.22;5159879;27;47150;-80
2024/03/06 10:33:06;;;;;;;;;0.25;0.25;;;;;13.97;100.00;101878.19;5140748;27;45457;-80
2024/03/06 10:35:32;;;;;;;;;4.00;4.00;;;;;14.01;100.00;101875.47;5140417;27;47888;-79
2024/03/06 10:38:00;;;;;;;;;0.00;0.00;;;;;14.09;100.00;101875.28;5137326;27;45450;-80
2024/03/06 10:40:29;;;;;;;;;1.00;0.25;;;;;14.22;100.00;101878.44;5154868;27;46224;-78
2024/03/06 10:42:55;;;;;;;;;0.00;0.00;;;;;14.26;100.00;101878.34;5160318;27;45852;-81
2024/03/06 10:45:23;;;;;;;;;0.00;0.00;;;;;14.43;100.00;101879.63;5148412;27;45371;-81
2024/03/06 10:47:51;;;;;;;;;0.00;0.00;;;;;14.61;100.00;101870.44;5134364;27;45479;-80
2024/03/06 10:50:17;;;;;;;;;0.00;0.00;;;;;14.76;100.00;101867.38;5153000;27;46555;-80
2024/03/06 10:52:46;;;;;;;;;0.75;0.75;;;;;14.93;100.00;101868.66;5155051;27;61286;-79
2024/03/06 10:55:12;;;;;;;;;0.25;0.25;;;;;15.20;100.00;101872.25;5131536;27;45419;-79
2024/03/06 10:57:39;;;;;;;;;0.00;0.00;;;;;15.06;100.00;101868.28;5132455;27;67508;-81
2024/03/06 11:00:06;;;;;;;;;0.00;0.00;;;;;15.28;100.00;101867.59;5147604;27;56333;-81
2024/03/06 11:02:31;;;;;;;;;0.00;0.00;;;;;15.53;100.00;101869.50;5131822;27;45562;-80
2024/03/06 11:04:58;;;;;;;;;0.00;0.00;;;;;15.68;100.00;101869.84;5123271;27;53217;-81
2024/03/06 11:07:24;;;;;;;;;0.00;0.00;;;;;15.89;100.00;101877.09;5135266;27;45384;-81
2024/03/06 11:09:50;;;;;;;;;0.00;0.00;;;;;16.01;100.00;101877.56;5104928;27;68874;-81
2024/03/06 11:12:35;;;;;;;;;0.00;0.00;;;;;16.10;100.00;101880.78;5123276;27;45569;-80